sensor_id;sensor_type;location;lat;lon;timestamp;pressure;altitude;pressure_sealevel;temperature;humidity
84819;BME280;75053;51.080;13.712;2024-02-23T00:02:12;97677.13;;;20.06;45.77
84819;BME280;75053;51.080;13.712;2024-02-23T00:04:38;97685.41;;;20.32;45.69
84819;BME280;75053;51.080;13.712;2024-02-23T00:07:03;97694.00;;;20.51;45.00
84819;BME280;75053;51.080;13.712;2024-02-23T00:09:29;97684.78;;;20.65;45.13
84819;BME280;75053;51.080;13.712;2024-02-23T00:11:54;97685.47;;;20.72;44.68
84819;BME280;75053;51.080;13.712;2024-02-23T00:14:20;97689.56;;;20.28;44.84
84819;BME280;75053;51.080;13.712;2024-02-23T00:16:46;97686.50;;;20.59;44.79
84819;BME280;75053;51.080;13.712;2024-02-23T00:19:11;97691.94;;;20.53;45.06
84819;BME280;75053;51.080;13.712;2024-02-23T00:21:38;97685.34;;;20.67;44.75
84819;BME280;75053;51.080;13.712;2024-02-23T00:24:07;97700.50;;;20.83;43.88
84819;BME280;75053;51.080;13.712;2024-02-23T00:26:33;97700.50;;;20.94;44.14
84819;BME280;75053;51.080;13.712;2024-02-23T00:28:58;97696.81;;;20.95;43.59
84819;BME280;75053;51.080;13.712;2024-02-23T00:31:29;97710.06;;;20.83;42.88
84819;BME280;75053;51.080;13.712;2024-02-23T00:33:55;97708.59;;;20.76;43.71
84819;BME280;75053;51.080;13.712;2024-02-23T00:36:20;97692.97;;;21.02;43.02
84819;BME280;75053;51.080;13.712;2024-02-23T00:38:45;97707.81;;;21.15;42.67
84819;BME280;75053;51.080;13.712;2024-02-23T00:41:11;97693.41;;;20.60;42.94
84819;BME280;75053;51.080;13.712;2024-02-23T00:43:40;97687.94;;;20.39;42.66
84819;BME280;75053;51.080;13.712;2024-02-23T00:46:07;97694.94;;;19.99;43.19
84819;BME280;75053;51.080;13.712;2024-02-23T00:48:33;97673.19;;;20.43;42.48
84819;BME280;75053;51.080;13.712;2024-02-23T00:50:58;97686.25;;;20.10;42.10
84819;BME280;75053;51.080;13.712;2024-02-23T00:53:24;97699.50;;;19.69;42.69
84819;BME280;75053;51.080;13.712;2024-02-23T00:55:49;97686.25;;;20.10;41.38
84819;BME280;75053;51.080;13.712;2024-02-23T00:58:15;97693.38;;;20.21;41.54
84819;BME280;75053;51.080;13.712;2024-02-23T01:00:41;97690.25;;;20.24;41.50
84819;BME280;75053;51.080;13.712;2024-02-23T01:03:07;97687.16;;;20.04;41.31
84819;BME280;75053;51.080;13.712;2024-02-23T01:05:33;97690.78;;;19.68;41.41
84819;BME280;75053;51.080;13.712;2024-02-23T01:07:58;97679.31;;;19.86;40.81
84819;BME280;75053;51.080;13.712;2024-02-23T01:10:29;97694.56;;;19.84;41.37
84819;BME280;75053;51.080;13.712;2024-02-23T01:12:54;97710.16;;;20.15;40.46
84819;BME280;75053;51.080;13.712;2024-02-23T01:15:20;97704.13;;;20.54;40.43
84819;BME280;75053;51.080;13.712;2024-02-23T01:17:45;97717.75;;;20.23;40.72
84819;BME280;75053;51.080;13.712;2024-02-23T01:20:10;97729.16;;;19.71;41.46
84819;BME280;75053;51.080;13.712;2024-02-23T01:22:36;97729.31;;;19.87;41.28
84819;BME280;75053;51.080;13.712;2024-02-23T01:25:02;97730.38;;;19.98;40.86
84819;BME280;75053;51.080;13.712;2024-02-23T01:27:28;97738.28;;;19.75;41.35
84819;BME280;75053;51.080;13.712;2024-02-23T01:29:53;97730.44;;;20.21;40.44
84819;BME280;75053;51.080;13.712;2024-02-23T01:32:22;97738.47;;;20.03;40.86
84819;BME280;75053;51.080;13.712;2024-02-23T01:34:48;97756.69;;;19.81;40.92
84819;BME280;75053;51.080;13.712;2024-02-23T01:37:13;97788.69;;;19.91;41.56
84819;BME280;75053;51.080;13.712;2024-02-23T01:39:39;97800.56;;;19.71;41.83
84819;BME280;75053;51.080;13.712;2024-02-23T01:42:05;97801.47;;;19.35;41.82
84819;BME280;75053;51.080;13.712;2024-02-23T01:44:30;97825.06;;;19.19;42.01
84819;BME280;75053;51.080;13.712;2024-02-23T01:46:56;97808.75;;;19.40;42.09
84819;BME280;75053;51.080;13.712;2024-02-23T01:49:22;97811.84;;;19.37;41.92
84819;BME280;75053;51.080;13.712;2024-02-23T01:51:48;97825.00;;;19.55;41.76
84819;BME280;75053;51.080;13.712;2024-02-23T01:54:15;97826.06;;;19.65;41.67
84819;BME280;75053;51.080;13.712;2024-02-23T01:56:41;97809.16;;;19.66;41.32
84819;BME280;75053;51.080;13.712;2024-02-23T01:59:09;97817.44;;;19.99;41.02
84819;BME280;75053;51.080;13.712;2024-02-23T02:01:35;97828.28;;;19.21;41.96
84819;BME280;75053;51.080;13.712;2024-02-23T02:04:01;97852.00;;;18.67;42.99
84819;BME280;75053;51.080;13.712;2024-02-23T02:06:26;97845.75;;;19.22;42.47
84819;BME280;75053;51.080;13.712;2024-02-23T02:08:55;97847.16;;;19.00;42.58
84819;BME280;75053;51.080;13.712;2024-02-23T02:11:21;97841.63;;;18.90;42.89
84819;BME280;75053;51.080;13.712;2024-02-23T02:13:46;97845.16;;;19.02;42.57
84819;BME280;75053;51.080;13.712;2024-02-23T02:16:12;97849.03;;;19.17;42.01
84819;BME280;75053;51.080;13.712;2024-02-23T02:18:37;97864.41;;;19.27;41.66
84819;BME280;75053;51.080;13.712;2024-02-23T02:21:03;97863.91;;;18.94;41.98
84819;BME280;75053;51.080;13.712;2024-02-23T02:23:28;97885.66;;;18.47;43.20
84819;BME280;75053;51.080;13.712;2024-02-23T02:25:55;97884.59;;;18.97;42.15
84819;BME280;75053;51.080;13.712;2024-02-23T02:28:21;97882.22;;;18.89;42.25
84819;BME280;75053;51.080;13.712;2024-02-23T02:30:46;97885.88;;;19.30;41.38
84819;BME280;75053;51.080;13.712;2024-02-23T02:33:12;97890.75;;;19.33;41.21
84819;BME280;75053;51.080;13.712;2024-02-23T02:35:37;97887.41;;;19.02;41.51
84819;BME280;75053;51.080;13.712;2024-02-23T02:38:04;97892.00;;;18.88;42.15
84819;BME280;75053;51.080;13.712;2024-02-23T02:40:29;97909.69;;;18.39;42.25
84819;BME280;75053;51.080;13.712;2024-02-23T02:42:54;97901.63;;;19.01;41.13
84819;BME280;75053;51.080;13.712;2024-02-23T02:45:20;97912.03;;;18.78;41.24
84819;BME280;75053;51.080;13.712;2024-02-23T02:47:46;97903.19;;;18.66;41.67
84819;BME280;75053;51.080;13.712;2024-02-23T02:50:11;97913.25;;;18.75;41.39
84819;BME280;75053;51.080;13.712;2024-02-23T02:52:37;97924.06;;;18.92;41.04
84819;BME280;75053;51.080;13.712;2024-02-23T02:55:03;97925.69;;;18.44;41.91
84819;BME280;75053;51.080;13.712;2024-02-23T02:57:29;97947.91;;;18.30;41.91
84819;BME280;75053;51.080;13.712;2024-02-23T02:59:55;97940.94;;;18.05;42.47
84819;BME280;75053;51.080;13.712;2024-02-23T03:02:20;97949.34;;;18.20;42.43
84819;BME280;75053;51.080;13.712;2024-02-23T03:04:49;97951.56;;;17.85;43.17
84819;BME280;75053;51.080;13.712;2024-02-23T03:07:16;97969.72;;;18.13;42.34
84819;BME280;75053;51.080;13.712;2024-02-23T03:09:44;97964.59;;;17.74;42.90
84819;BME280;75053;51.080;13.712;2024-02-23T03:12:10;97966.00;;;18.20;42.22
84819;BME280;75053;51.080;13.712;2024-02-23T03:14:36;97980.28;;;18.00;42.30
84819;BME280;75053;51.080;13.712;2024-02-23T03:17:07;97979.44;;;18.12;42.15
84819;BME280;75053;51.080;13.712;2024-02-23T03:19:32;97980.31;;;17.93;41.85
84819;BME280;75053;51.080;13.712;2024-02-23T03:21:58;97995.00;;;17.76;41.98
84819;BME280;75053;51.080;13.712;2024-02-23T03:24:24;97995.88;;;17.51;42.38
84819;BME280;75053;51.080;13.712;2024-02-23T03:26:49;97997.81;;;17.81;41.94
84819;BME280;75053;51.080;13.712;2024-02-23T03:29:15;98010.44;;;17.66;41.83
84819;BME280;75053;51.080;13.712;2024-02-23T03:31:41;98022.03;;;17.52;41.07
84819;BME280;75053;51.080;13.712;2024-02-23T03:34:06;98027.91;;;17.54;40.89
84819;BME280;75053;51.080;13.712;2024-02-23T03:36:33;98037.44;;;17.55;40.80
84819;BME280;75053;51.080;13.712;2024-02-23T03:38:58;98026.25;;;17.66;41.14
84819;BME280;75053;51.080;13.712;2024-02-23T03:41:24;98041.28;;;17.66;40.74
84819;BME280;75053;51.080;13.712;2024-02-23T03:43:49;98049.84;;;17.42;41.21
84819;BME280;75053;51.080;13.712;2024-02-23T03:46:15;98058.13;;;17.45;41.72
84819;BME280;75053;51.080;13.712;2024-02-23T03:48:47;98075.94;;;17.56;41.39
84819;BME280;75053;51.080;13.712;2024-02-23T03:51:12;98097.78;;;16.98;40.55
84819;BME280;75053;51.080;13.712;2024-02-23T03:53:38;98108.56;;;17.10;39.69
84819;BME280;75053;51.080;13.712;2024-02-23T03:56:03;98135.16;;;16.61;37.53
84819;BME280;75053;51.080;13.712;2024-02-23T03:58:29;98128.25;;;16.47;36.07
84819;BME280;75053;51.080;13.712;2024-02-23T04:00:54;98152.38;;;16.57;36.53
84819;BME280;75053;51.080;13.712;2024-02-23T04:03:20;98155.78;;;16.51;36.51
84819;BME280;75053;51.080;13.712;2024-02-23T04:05:45;98164.25;;;16.40;36.81
84819;BME280;75053;51.080;13.712;2024-02-23T04:08:11;98194.56;;;16.36;37.41
84819;BME280;75053;51.080;13.712;2024-02-23T04:10:36;98186.28;;;16.05;37.48
84819;BME280;75053;51.080;13.712;2024-02-23T04:13:02;98200.66;;;16.09;37.32
84819;BME280;75053;51.080;13.712;2024-02-23T04:15:28;98187.41;;;15.97;37.00
84819;BME280;75053;51.080;13.712;2024-02-23T04:17:53;98193.78;;;16.42;36.76
84819;BME280;75053;51.080;13.712;2024-02-23T04:20:19;98188.78;;;16.20;36.73
84819;BME280;75053;51.080;13.712;2024-02-23T04:22:44;98202.09;;;16.12;37.10
84819;BME280;75053;51.080;13.712;2024-02-23T04:25:10;98198.50;;;16.19;36.84
84819;BME280;75053;51.080;13.712;2024-02-23T04:27:38;98187.97;;;16.19;36.70
84819;BME280;75053;51.080;13.712;2024-02-23T04:30:04;98193.31;;;16.32;36.95
84819;BME280;75053;51.080;13.712;2024-02-23T04:32:31;98201.44;;;16.37;36.42
84819;BME280;75053;51.080;13.712;2024-02-23T04:34:59;98222.00;;;15.73;37.42
84819;BME280;75053;51.080;13.712;2024-02-23T04:37:25;98219.50;;;15.65;37.37
84819;BME280;75053;51.080;13.712;2024-02-23T04:39:50;98208.50;;;16.03;36.50
84819;BME280;75053;51.080;13.712;2024-02-23T04:42:16;98218.38;;;16.28;36.69
84819;BME280;75053;51.080;13.712;2024-02-23T04:44:42;98219.13;;;16.22;37.38
84819;BME280;75053;51.080;13.712;2024-02-23T04:47:07;98220.69;;;16.10;37.65
84819;BME280;75053;51.080;13.712;2024-02-23T04:49:34;98224.22;;;15.97;37.15
84819;BME280;75053;51.080;13.712;2024-02-23T04:51:59;98234.16;;;16.28;37.08
84819;BME280;75053;51.080;13.712;2024-02-23T04:54:25;98242.09;;;16.07;37.66
84819;BME280;75053;51.080;13.712;2024-02-23T04:56:50;98244.00;;;16.47;37.42
84819;BME280;75053;51.080;13.712;2024-02-23T04:59:16;98257.09;;;16.13;38.27
84819;BME280;75053;51.080;13.712;2024-02-23T05:01:41;98265.16;;;16.05;38.64
84819;BME280;75053;51.080;13.712;2024-02-23T05:04:08;98274.94;;;15.70;39.38
84819;BME280;75053;51.080;13.712;2024-02-23T05:06:33;98282.78;;;15.91;39.48
84819;BME280;75053;51.080;13.712;2024-02-23T05:08:59;98305.09;;;15.95;39.66
84819;BME280;75053;51.080;13.712;2024-02-23T05:11:24;98304.91;;;16.23;39.32
84819;BME280;75053;51.080;13.712;2024-02-23T05:13:50;98321.06;;;16.20;39.47
84819;BME280;75053;51.080;13.712;2024-02-23T05:16:15;98320.91;;;16.01;39.83
84819;BME280;75053;51.080;13.712;2024-02-23T05:18:41;98310.22;;;15.61;40.29
84819;BME280;75053;51.080;13.712;2024-02-23T05:21:07;98320.69;;;15.75;40.19
84819;BME280;75053;51.080;13.712;2024-02-23T05:23:33;98311.94;;;15.33;40.45
84819;BME280;75053;51.080;13.712;2024-02-23T05:25:58;98322.81;;;15.30;40.23
84819;BME280;75053;51.080;13.712;2024-02-23T05:28:24;98312.19;;;15.38;40.55
84819;BME280;75053;51.080;13.712;2024-02-23T05:30:50;98327.34;;;15.98;39.35
84819;BME280;75053;51.080;13.712;2024-02-23T05:33:16;98322.88;;;15.93;39.32
84819;BME280;75053;51.080;13.712;2024-02-23T05:35:41;98308.97;;;15.78;39.40
84819;BME280;75053;51.080;13.712;2024-02-23T05:38:07;98317.22;;;15.96;39.02
84819;BME280;75053;51.080;13.712;2024-02-23T05:40:32;98322.94;;;15.78;39.05
84819;BME280;75053;51.080;13.712;2024-02-23T05:42:58;98321.88;;;15.94;39.14
84819;BME280;75053;51.080;13.712;2024-02-23T05:45:24;98328.69;;;16.15;38.49
84819;BME280;75053;51.080;13.712;2024-02-23T05:47:49;98328.09;;;15.51;38.89
84819;BME280;75053;51.080;13.712;2024-02-23T05:50:15;98332.81;;;15.41;39.02
84819;BME280;75053;51.080;13.712;2024-02-23T05:52:43;98344.44;;;15.32;39.15
84819;BME280;75053;51.080;13.712;2024-02-23T05:55:08;98333.59;;;15.35;38.89
84819;BME280;75053;51.080;13.712;2024-02-23T05:57:34;98330.09;;;15.49;38.68
84819;BME280;75053;51.080;13.712;2024-02-23T05:59:59;98341.97;;;15.45;38.76
84819;BME280;75053;51.080;13.712;2024-02-23T06:02:25;98364.88;;;15.51;38.76
84819;BME280;75053;51.080;13.712;2024-02-23T06:04:50;98363.06;;;15.22;38.52
84819;BME280;75053;51.080;13.712;2024-02-23T06:07:16;98370.16;;;15.22;38.57
84819;BME280;75053;51.080;13.712;2024-02-23T06:09:45;98368.34;;;15.37;38.59
84819;BME280;75053;51.080;13.712;2024-02-23T06:12:10;98378.81;;;15.87;37.91
84819;BME280;75053;51.080;13.712;2024-02-23T06:14:36;98392.03;;;15.58;38.12
84819;BME280;75053;51.080;13.712;2024-02-23T06:17:02;98402.47;;;15.51;38.03
84819;BME280;75053;51.080;13.712;2024-02-23T06:19:28;98397.41;;;15.35;38.57
84819;BME280;75053;51.080;13.712;2024-02-23T06:21:54;98390.56;;;15.70;38.15
84819;BME280;75053;51.080;13.712;2024-02-23T06:24:19;98392.03;;;15.79;37.84
84819;BME280;75053;51.080;13.712;2024-02-23T06:26:45;98398.44;;;15.91;37.85
84819;BME280;75053;51.080;13.712;2024-02-23T06:29:11;98404.94;;;15.74;38.17
84819;BME280;75053;51.080;13.712;2024-02-23T06:31:38;98417.25;;;15.38;38.68
84819;BME280;75053;51.080;13.712;2024-02-23T06:34:05;98413.34;;;15.19;39.08
84819;BME280;75053;51.080;13.712;2024-02-23T06:36:30;98402.69;;;15.71;38.65
84819;BME280;75053;51.080;13.712;2024-02-23T06:38:56;98413.03;;;15.93;37.99
84819;BME280;75053;51.080;13.712;2024-02-23T06:41:22;98421.47;;;15.89;38.29
84819;BME280;75053;51.080;13.712;2024-02-23T06:43:48;98419.50;;;16.11;38.12
84819;BME280;75053;51.080;13.712;2024-02-23T06:46:13;98417.81;;;16.25;37.80
84819;BME280;75053;51.080;13.712;2024-02-23T06:48:39;98418.25;;;16.28;37.85
84819;BME280;75053;51.080;13.712;2024-02-23T06:51:05;98427.66;;;16.58;37.53
84819;BME280;75053;51.080;13.712;2024-02-23T06:53:31;98424.56;;;16.55;37.28
84819;BME280;75053;51.080;13.712;2024-02-23T06:55:56;98414.38;;;16.45;37.67
84819;BME280;75053;51.080;13.712;2024-02-23T06:58:21;98414.19;;;16.74;37.16
84819;BME280;75053;51.080;13.712;2024-02-23T07:00:47;98414.69;;;16.84;37.26
84819;BME280;75053;51.080;13.712;2024-02-23T07:03:13;98412.38;;;16.47;37.34
84819;BME280;75053;51.080;13.712;2024-02-23T07:05:40;98419.59;;;16.03;37.95
84819;BME280;75053;51.080;13.712;2024-02-23T07:08:07;98412.13;;;16.42;37.70
84819;BME280;75053;51.080;13.712;2024-02-23T07:10:36;98411.88;;;16.16;37.87
84819;BME280;75053;51.080;13.712;2024-02-23T07:13:01;98421.09;;;15.92;37.86
84819;BME280;75053;51.080;13.712;2024-02-23T07:15:27;98419.59;;;15.83;38.07
84819;BME280;75053;51.080;13.712;2024-02-23T07:17:52;98435.75;;;16.00;38.21
84819;BME280;75053;51.080;13.712;2024-02-23T07:20:18;98443.09;;;15.70;38.65
84819;BME280;75053;51.080;13.712;2024-02-23T07:22:46;98462.22;;;15.78;38.77
84819;BME280;75053;51.080;13.712;2024-02-23T07:25:15;98459.25;;;16.02;38.77
84819;BME280;75053;51.080;13.712;2024-02-23T07:27:41;98460.97;;;16.51;37.82
84819;BME280;75053;51.080;13.712;2024-02-23T07:30:07;98464.13;;;16.40;37.96
84819;BME280;75053;51.080;13.712;2024-02-23T07:32:33;98458.72;;;16.48;37.82
84819;BME280;75053;51.080;13.712;2024-02-23T07:34:58;98472.84;;;16.26;38.16
84819;BME280;75053;51.080;13.712;2024-02-23T07:37:26;98476.34;;;16.12;38.76
84819;BME280;75053;51.080;13.712;2024-02-23T07:39:51;98481.22;;;15.95;38.88
84819;BME280;75053;51.080;13.712;2024-02-23T07:42:17;98481.31;;;16.22;38.39
84819;BME280;75053;51.080;13.712;2024-02-23T07:44:46;98482.38;;;15.92;38.74
84819;BME280;75053;51.080;13.712;2024-02-23T07:47:12;98477.63;;;16.16;38.72
84819;BME280;75053;51.080;13.712;2024-02-23T07:49:37;98500.47;;;16.01;38.24
84819;BME280;75053;51.080;13.712;2024-02-23T07:52:03;98492.19;;;15.26;39.42
84819;BME280;75053;51.080;13.712;2024-02-23T07:54:29;98510.19;;;15.29;39.42
84819;BME280;75053;51.080;13.712;2024-02-23T07:56:54;98508.88;;;15.62;39.44
84819;BME280;75053;51.080;13.712;2024-02-23T07:59:20;98518.75;;;15.60;39.58
84819;BME280;75053;51.080;13.712;2024-02-23T08:01:45;98526.03;;;16.07;38.96
84819;BME280;75053;51.080;13.712;2024-02-23T08:04:12;98542.59;;;15.73;39.53
84819;BME280;75053;51.080;13.712;2024-02-23T08:06:39;98551.56;;;15.78;39.21
84819;BME280;75053;51.080;13.712;2024-02-23T08:09:04;98546.09;;;15.80;38.73
84819;BME280;75053;51.080;13.712;2024-02-23T08:11:29;98543.91;;;16.47;37.83
84819;BME280;75053;51.080;13.712;2024-02-23T08:13:55;98539.56;;;16.54;37.56
84819;BME280;75053;51.080;13.712;2024-02-23T08:16:21;98536.84;;;16.69;37.48
84819;BME280;75053;51.080;13.712;2024-02-23T08:18:46;98550.88;;;16.19;38.11
84819;BME280;75053;51.080;13.712;2024-02-23T08:21:12;98549.00;;;16.34;37.92
84819;BME280;75053;51.080;13.712;2024-02-23T08:23:38;98551.41;;;16.29;38.02
84819;BME280;75053;51.080;13.712;2024-02-23T08:26:03;98550.94;;;16.26;38.14
84819;BME280;75053;51.080;13.712;2024-02-23T08:28:29;98542.78;;;16.21;37.86
84819;BME280;75053;51.080;13.712;2024-02-23T08:30:54;98552.88;;;16.17;37.91
84819;BME280;75053;51.080;13.712;2024-02-23T08:33:19;98547.47;;;16.40;37.76
84819;BME280;75053;51.080;13.712;2024-02-23T08:35:45;98546.31;;;16.42;37.80
84819;BME280;75053;51.080;13.712;2024-02-23T08:38:11;98541.88;;;16.28;38.03
84819;BME280;75053;51.080;13.712;2024-02-23T08:40:36;98538.72;;;16.18;38.24
84819;BME280;75053;51.080;13.712;2024-02-23T08:43:02;98538.75;;;16.39;37.91
84819;BME280;75053;51.080;13.712;2024-02-23T08:45:28;98525.19;;;16.21;37.90
84819;BME280;75053;51.080;13.712;2024-02-23T08:47:53;98524.09;;;15.81;38.53
84819;BME280;75053;51.080;13.712;2024-02-23T08:50:19;98524.97;;;15.88;38.40
84819;BME280;75053;51.080;13.712;2024-02-23T08:52:44;98503.66;;;16.47;37.58
84819;BME280;75053;51.080;13.712;2024-02-23T08:55:10;98508.50;;;16.14;38.01
84819;BME280;75053;51.080;13.712;2024-02-23T08:57:37;98514.78;;;16.13;38.22
84819;BME280;75053;51.080;13.712;2024-02-23T09:00:03;98519.78;;;16.86;37.64
84819;BME280;75053;51.080;13.712;2024-02-23T09:02:30;98532.88;;;17.00;36.58
84819;BME280;75053;51.080;13.712;2024-02-23T09:04:56;98542.19;;;16.75;37.20
84819;BME280;75053;51.080;13.712;2024-02-23T09:07:27;98547.41;;;17.17;36.44
84819;BME280;75053;51.080;13.712;2024-02-23T09:09:53;98540.78;;;17.55;36.36
84819;BME280;75053;51.080;13.712;2024-02-23T09:12:19;98549.41;;;17.70;36.10
84819;BME280;75053;51.080;13.712;2024-02-23T09:14:45;98553.56;;;17.92;35.89
84819;BME280;75053;51.080;13.712;2024-02-23T09:17:11;98553.28;;;17.74;35.92
84819;BME280;75053;51.080;13.712;2024-02-23T09:19:38;98559.56;;;18.07;35.12
84819;BME280;75053;51.080;13.712;2024-02-23T09:22:03;98572.91;;;17.99;35.06
84819;BME280;75053;51.080;13.712;2024-02-23T09:24:29;98575.28;;;18.28;35.36
84819;BME280;75053;51.080;13.712;2024-02-23T09:26:56;98582.75;;;18.25;35.01
84819;BME280;75053;51.080;13.712;2024-02-23T09:29:22;98587.16;;;17.77;35.14
84819;BME280;75053;51.080;13.712;2024-02-23T09:31:47;98584.47;;;17.98;35.29
84819;BME280;75053;51.080;13.712;2024-02-23T09:34:13;98589.22;;;18.16;34.68
84819;BME280;75053;51.080;13.712;2024-02-23T09:36:38;98588.59;;;18.54;34.50
84819;BME280;75053;51.080;13.712;2024-02-23T09:39:16;98599.19;;;18.27;34.18
84819;BME280;75053;51.080;13.712;2024-02-23T09:41:50;98589.69;;;17.92;34.50
84819;BME280;75053;51.080;13.712;2024-02-23T09:44:15;98584.94;;;17.47;35.22
84819;BME280;75053;51.080;13.712;2024-02-23T09:46:43;98587.97;;;17.71;35.17
84819;BME280;75053;51.080;13.712;2024-02-23T09:49:11;98589.53;;;17.66;35.20
84819;BME280;75053;51.080;13.712;2024-02-23T09:51:38;98583.91;;;18.09;34.86
84819;BME280;75053;51.080;13.712;2024-02-23T09:54:04;98580.91;;;18.19;34.70
84819;BME280;75053;51.080;13.712;2024-02-23T09:56:30;98576.44;;;18.19;34.58
84819;BME280;75053;51.080;13.712;2024-02-23T09:59:00;98577.06;;;17.81;34.82
84819;BME280;75053;51.080;13.712;2024-02-23T10:01:31;98564.53;;;17.89;35.14
84819;BME280;75053;51.080;13.712;2024-02-23T10:03:59;98563.38;;;18.05;33.95
84819;BME280;75053;51.080;13.712;2024-02-23T10:06:25;98570.25;;;17.99;34.32
84819;BME280;75053;51.080;13.712;2024-02-23T10:08:51;98570.31;;;18.12;33.54
84819;BME280;75053;51.080;13.712;2024-02-23T10:11:21;98573.97;;;17.22;35.09
84819;BME280;75053;51.080;13.712;2024-02-23T10:13:50;98587.06;;;17.58;34.72
84819;BME280;75053;51.080;13.712;2024-02-23T10:16:17;98593.59;;;17.68;34.10
84819;BME280;75053;51.080;13.712;2024-02-23T10:18:42;98590.25;;;16.84;35.44
84819;BME280;75053;51.080;13.712;2024-02-23T10:21:08;98595.91;;;17.50;34.74
84819;BME280;75053;51.080;13.712;2024-02-23T10:23:33;98594.38;;;17.62;34.19
84819;BME280;75053;51.080;13.712;2024-02-23T10:25:59;98595.53;;;17.53;34.30
84819;BME280;75053;51.080;13.712;2024-02-23T10:28:24;98599.94;;;18.14;33.45
84819;BME280;75053;51.080;13.712;2024-02-23T10:30:51;98610.84;;;17.98;33.27
84819;BME280;75053;51.080;13.712;2024-02-23T10:33:20;98608.59;;;18.36;32.87
84819;BME280;75053;51.080;13.712;2024-02-23T10:35:51;98632.66;;;18.60;33.16
84819;BME280;75053;51.080;13.712;2024-02-23T10:38:20;98637.22;;;17.98;33.48
84819;BME280;75053;51.080;13.712;2024-02-23T10:40:47;98627.22;;;18.28;33.18
84819;BME280;75053;51.080;13.712;2024-02-23T10:43:16;98637.38;;;18.71;32.42
84819;BME280;75053;51.080;13.712;2024-02-23T10:45:43;98639.53;;;19.40;31.51
84819;BME280;75053;51.080;13.712;2024-02-23T10:48:10;98641.75;;;19.24;31.50
84819;BME280;75053;51.080;13.712;2024-02-23T10:50:37;98633.41;;;18.07;32.67
84819;BME280;75053;51.080;13.712;2024-02-23T10:55:52;98628.41;;;18.25;32.25
84819;BME280;75053;51.080;13.712;2024-02-23T10:58:20;98637.44;;;18.03;32.69
84819;BME280;75053;51.080;13.712;2024-02-23T11:00:47;98637.03;;;18.40;32.59
84819;BME280;75053;51.080;13.712;2024-02-23T11:03:14;98649.06;;;18.15;32.39
84819;BME280;75053;51.080;13.712;2024-02-23T11:05:40;98664.63;;;17.76;32.81
84819;BME280;75053;51.080;13.712;2024-02-23T11:08:06;98661.16;;;18.03;32.22
84819;BME280;75053;51.080;13.712;2024-02-23T11:10:41;98676.47;;;17.87;31.29
84819;BME280;75053;51.080;13.712;2024-02-23T11:13:08;98671.53;;;17.29;32.44
84819;BME280;75053;51.080;13.712;2024-02-23T11:15:34;98668.00;;;17.01;32.82
84819;BME280;75053;51.080;13.712;2024-02-23T11:18:27;98663.09;;;18.56;31.70
84819;BME280;75053;51.080;13.712;2024-02-23T11:20:59;98673.41;;;18.17;31.94
84819;BME280;75053;51.080;13.712;2024-02-23T11:23:25;98671.72;;;17.76;31.83
84819;BME280;75053;51.080;13.712;2024-02-23T11:26:05;98665.63;;;18.03;31.25
84819;BME280;75053;51.080;13.712;2024-02-23T11:28:51;98680.84;;;18.35;30.67
84819;BME280;75053;51.080;13.712;2024-02-23T11:31:29;98668.44;;;18.69;30.24
84819;BME280;75053;51.080;13.712;2024-02-23T11:33:56;98671.03;;;18.22;30.60
84819;BME280;75053;51.080;13.712;2024-02-23T11:36:42;98666.63;;;18.29;31.12
84819;BME280;75053;51.080;13.712;2024-02-23T11:39:09;98659.00;;;18.47;30.79
84819;BME280;75053;51.080;13.712;2024-02-23T11:41:38;98657.88;;;18.69;30.99
84819;BME280;75053;51.080;13.712;2024-02-23T11:44:03;98648.44;;;17.79;31.70
84819;BME280;75053;51.080;13.712;2024-02-23T11:46:29;98641.53;;;17.78;31.82
84819;BME280;75053;51.080;13.712;2024-02-23T11:48:54;98634.16;;;18.29;31.25
84819;BME280;75053;51.080;13.712;2024-02-23T11:51:20;98653.97;;;18.18;31.19
84819;BME280;75053;51.080;13.712;2024-02-23T11:53:47;98649.47;;;18.12;30.83
84819;BME280;75053;51.080;13.712;2024-02-23T11:56:13;98651.69;;;18.15;30.23
84819;BME280;75053;51.080;13.712;2024-02-23T11:58:42;98648.88;;;18.17;30.96
84819;BME280;75053;51.080;13.712;2024-02-23T12:01:08;98646.16;;;18.31;30.16
84819;BME280;75053;51.080;13.712;2024-02-23T12:03:34;98653.38;;;18.63;29.97
84819;BME280;75053;51.080;13.712;2024-02-23T12:06:01;98651.81;;;18.88;29.89
84819;BME280;75053;51.080;13.712;2024-02-23T12:08:27;98649.44;;;19.12;29.61
84819;BME280;75053;51.080;13.712;2024-02-23T12:10:54;98641.75;;;19.24;29.44
84819;BME280;75053;51.080;13.712;2024-02-23T12:13:20;98650.94;;;19.54;29.64
84819;BME280;75053;51.080;13.712;2024-02-23T12:15:47;98648.06;;;19.88;28.78
84819;BME280;75053;51.080;13.712;2024-02-23T12:18:13;98651.50;;;19.95;29.69
84819;BME280;75053;51.080;13.712;2024-02-23T12:20:39;98651.53;;;19.69;29.54
84819;BME280;75053;51.080;13.712;2024-02-23T12:23:05;98660.91;;;19.65;29.51
84819;BME280;75053;51.080;13.712;2024-02-23T12:25:32;98655.22;;;19.42;29.98
84819;BME280;75053;51.080;13.712;2024-02-23T12:27:58;98669.84;;;19.77;29.65
84819;BME280;75053;51.080;13.712;2024-02-23T12:30:26;98658.44;;;19.18;29.93
84819;BME280;75053;51.080;13.712;2024-02-23T12:33:08;98643.41;;;19.57;29.63
84819;BME280;75053;51.080;13.712;2024-02-23T12:35:34;98646.25;;;19.30;28.42
84819;BME280;75053;51.080;13.712;2024-02-23T12:38:01;98635.22;;;19.13;29.02
84819;BME280;75053;51.080;13.712;2024-02-23T12:40:26;98639.16;;;19.63;28.59
84819;BME280;75053;51.080;13.712;2024-02-23T12:42:52;98632.44;;;19.28;28.92
84819;BME280;75053;51.080;13.712;2024-02-23T12:45:18;98627.72;;;19.82;28.96
84819;BME280;75053;51.080;13.712;2024-02-23T12:47:43;98630.31;;;20.27;27.92
84819;BME280;75053;51.080;13.712;2024-02-23T12:50:09;98626.69;;;20.09;28.15